sensor_id;sensor_type;location;lat;lon;timestamp;pressure;altitude;pressure_sealevel;temperature;humidity
86083;BME280;76693;50.220;14.298;2024-03-06T00:02:04;99480.06;;;2.85;88.87
86083;BME280;76693;50.220;14.298;2024-03-06T00:04:29;99482.22;;;2.79;88.42
86083;BME280;76693;50.220;14.298;2024-03-06T00:06:55;99482.28;;;2.67;88.16
86083;BME280;76693;50.220;14.298;2024-03-06T00:09:20;99483.66;;;2.62;88.41
86083;BME280;76693;50.220;14.298;2024-03-06T00:11:45;99487.16;;;2.64;88.83
86083;BME280;76693;50.220;14.298;2024-03-06T00:14:11;99488.56;;;2.72;90.23
86083;BME280;76693;50.220;14.298;2024-03-06T00:16:37;99503.41;;;2.53;89.11
86083;BME280;76693;50.220;14.298;2024-03-06T00:19:03;99495.44;;;2.48;89.16
86083;BME280;76693;50.220;14.298;2024-03-06T00:21:28;99494.56;;;2.48;90.06
86083;BME280;76693;50.220;14.298;2024-03-06T00:23:54;99505.13;;;2.41;89.64
86083;BME280;76693;50.220;14.298;2024-03-06T00:26:20;99508.25;;;2.37;89.81
86083;BME280;76693;50.220;14.298;2024-03-06T00:28:45;99509.16;;;2.25;89.67
86083;BME280;76693;50.220;14.298;2024-03-06T00:31:11;99505.72;;;2.37;90.06
86083;BME280;76693;50.220;14.298;2024-03-06T00:33:36;99514.78;;;2.33;89.70
86083;BME280;76693;50.220;14.298;2024-03-06T00:36:01;99506.28;;;2.33;89.34
86083;BME280;76693;50.220;14.298;2024-03-06T00:38:26;99516.59;;;2.22;89.11
86083;BME280;76693;50.220;14.298;2024-03-06T00:40:51;99520.13;;;2.24;89.30
86083;BME280;76693;50.220;14.298;2024-03-06T00:43:17;99517.03;;;2.29;88.88
86083;BME280;76693;50.220;14.298;2024-03-06T00:45:42;99519.19;;;2.36;88.39
86083;BME280;76693;50.220;14.298;2024-03-06T00:48:07;99523.84;;;2.41;88.33
86083;BME280;76693;50.220;14.298;2024-03-06T00:50:33;99516.97;;;2.40;88.54
86083;BME280;76693;50.220;14.298;2024-03-06T00:52:58;99527.50;;;2.58;88.14
86083;BME280;76693;50.220;14.298;2024-03-06T00:55:23;99524.78;;;2.68;87.26
86083;BME280;76693;50.220;14.298;2024-03-06T00:57:48;99520.03;;;2.48;86.65
86083;BME280;76693;50.220;14.298;2024-03-06T01:00:14;99526.91;;;2.49;87.71
86083;BME280;76693;50.220;14.298;2024-03-06T01:02:40;99524.56;;;2.65;87.25
86083;BME280;76693;50.220;14.298;2024-03-06T01:05:06;99521.88;;;2.75;87.68
86083;BME280;76693;50.220;14.298;2024-03-06T01:07:32;99512.09;;;2.82;87.68
86083;BME280;76693;50.220;14.298;2024-03-06T01:09:57;99520.13;;;2.74;87.11
86083;BME280;76693;50.220;14.298;2024-03-06T01:12:23;99518.88;;;2.56;86.60
86083;BME280;76693;50.220;14.298;2024-03-06T01:14:48;99516.75;;;2.62;87.08
86083;BME280;76693;50.220;14.298;2024-03-06T01:17:13;99512.38;;;2.48;87.29
86083;BME280;76693;50.220;14.298;2024-03-06T01:19:39;99514.31;;;2.39;87.37
86083;BME280;76693;50.220;14.298;2024-03-06T01:22:04;99514.63;;;2.18;86.36
86083;BME280;76693;50.220;14.298;2024-03-06T01:24:29;99520.22;;;2.01;87.55
86083;BME280;76693;50.220;14.298;2024-03-06T01:26:54;99515.25;;;2.03;87.89
86083;BME280;76693;50.220;14.298;2024-03-06T01:29:19;99512.78;;;2.04;87.14
86083;BME280;76693;50.220;14.298;2024-03-06T01:31:45;99518.44;;;2.00;88.07
86083;BME280;76693;50.220;14.298;2024-03-06T01:34:11;99524.91;;;1.83;87.89
86083;BME280;76693;50.220;14.298;2024-03-06T01:36:36;99516.06;;;1.78;88.54
86083;BME280;76693;50.220;14.298;2024-03-06T01:39:02;99520.59;;;1.94;89.05
86083;BME280;76693;50.220;14.298;2024-03-06T01:41:27;99519.78;;;1.95;89.01
86083;BME280;76693;50.220;14.298;2024-03-06T01:43:53;99526.50;;;2.06;88.59
86083;BME280;76693;50.220;14.298;2024-03-06T01:46:18;99529.03;;;2.06;87.98
86083;BME280;76693;50.220;14.298;2024-03-06T01:48:43;99530.81;;;2.07;87.44
86083;BME280;76693;50.220;14.298;2024-03-06T01:51:09;99525.75;;;2.07;87.98
86083;BME280;76693;50.220;14.298;2024-03-06T01:53:34;99526.88;;;1.99;87.65
86083;BME280;76693;50.220;14.298;2024-03-06T01:56:00;99529.59;;;2.02;87.85
86083;BME280;76693;50.220;14.298;2024-03-06T01:58:26;99529.53;;;1.89;87.24
86083;BME280;76693;50.220;14.298;2024-03-06T02:00:52;99528.88;;;1.80;87.81
86083;BME280;76693;50.220;14.298;2024-03-06T02:03:18;99528.66;;;1.77;88.25
86083;BME280;76693;50.220;14.298;2024-03-06T02:05:44;99539.28;;;1.83;87.46
86083;BME280;76693;50.220;14.298;2024-03-06T02:08:09;99537.53;;;1.82;88.23
86083;BME280;76693;50.220;14.298;2024-03-06T02:10:35;99535.63;;;1.91;87.67
86083;BME280;76693;50.220;14.298;2024-03-06T02:13:01;99540.13;;;2.07;87.62
86083;BME280;76693;50.220;14.298;2024-03-06T02:15:26;99535.53;;;2.14;86.65
86083;BME280;76693;50.220;14.298;2024-03-06T02:17:51;99531.44;;;2.16;86.66
86083;BME280;76693;50.220;14.298;2024-03-06T02:20:24;99530.00;;;2.20;86.89
86083;BME280;76693;50.220;14.298;2024-03-06T02:22:50;99534.69;;;2.39;86.81
86083;BME280;76693;50.220;14.298;2024-03-06T02:25:15;99534.47;;;2.36;86.66
86083;BME280;76693;50.220;14.298;2024-03-06T02:27:42;99545.34;;;2.33;87.99
86083;BME280;76693;50.220;14.298;2024-03-06T02:30:08;99542.53;;;2.42;87.85
86083;BME280;76693;50.220;14.298;2024-03-06T02:32:33;99543.75;;;2.60;86.32
86083;BME280;76693;50.220;14.298;2024-03-06T02:35:00;99541.56;;;2.78;85.72
86083;BME280;76693;50.220;14.298;2024-03-06T02:37:27;99547.75;;;2.82;85.54
86083;BME280;76693;50.220;14.298;2024-03-06T02:39:53;99550.09;;;2.79;84.99
86083;BME280;76693;50.220;14.298;2024-03-06T02:42:18;99553.47;;;2.91;85.63
86083;BME280;76693;50.220;14.298;2024-03-06T02:44:43;99553.06;;;2.85;85.83
86083;BME280;76693;50.220;14.298;2024-03-06T02:47:08;99551.88;;;2.80;87.09
86083;BME280;76693;50.220;14.298;2024-03-06T02:49:34;99561.31;;;2.69;86.99
86083;BME280;76693;50.220;14.298;2024-03-06T02:51:59;99562.03;;;2.66;86.96
86083;BME280;76693;50.220;14.298;2024-03-06T02:54:26;99563.25;;;2.85;87.13
86083;BME280;76693;50.220;14.298;2024-03-06T02:56:51;99563.50;;;2.76;86.26
86083;BME280;76693;50.220;14.298;2024-03-06T02:59:17;99570.41;;;2.65;87.33
86083;BME280;76693;50.220;14.298;2024-03-06T03:01:42;99563.59;;;2.78;87.70
86083;BME280;76693;50.220;14.298;2024-03-06T03:04:10;99573.97;;;2.67;87.24
86083;BME280;76693;50.220;14.298;2024-03-06T03:06:36;99571.41;;;2.67;87.91
86083;BME280;76693;50.220;14.298;2024-03-06T03:09:01;99580.28;;;2.86;87.32
86083;BME280;76693;50.220;14.298;2024-03-06T03:11:27;99568.59;;;3.14;87.81
86083;BME280;76693;50.220;14.298;2024-03-06T03:13:53;99570.78;;;3.35;86.03
86083;BME280;76693;50.220;14.298;2024-03-06T03:16:18;99567.16;;;3.44;85.83
86083;BME280;76693;50.220;14.298;2024-03-06T03:18:45;99561.59;;;3.50;86.20
86083;BME280;76693;50.220;14.298;2024-03-06T03:21:10;99572.16;;;3.43;85.98
86083;BME280;76693;50.220;14.298;2024-03-06T03:23:36;99572.09;;;3.55;85.41
86083;BME280;76693;50.220;14.298;2024-03-06T03:26:01;99567.66;;;3.52;86.16
86083;BME280;76693;50.220;14.298;2024-03-06T03:28:28;99573.75;;;3.67;85.42
86083;BME280;76693;50.220;14.298;2024-03-06T03:30:54;99567.56;;;3.64;84.74
86083;BME280;76693;50.220;14.298;2024-03-06T03:33:19;99568.66;;;3.67;85.60
86083;BME280;76693;50.220;14.298;2024-03-06T03:35:44;99570.69;;;3.60;85.12
86083;BME280;76693;50.220;14.298;2024-03-06T03:38:09;99573.63;;;3.39;85.19
86083;BME280;76693;50.220;14.298;2024-03-06T03:40:34;99569.03;;;3.47;87.05
86083;BME280;76693;50.220;14.298;2024-03-06T03:43:00;99570.13;;;3.50;85.37
86083;BME280;76693;50.220;14.298;2024-03-06T03:45:31;99571.78;;;3.63;85.76
86083;BME280;76693;50.220;14.298;2024-03-06T03:47:56;99568.81;;;3.57;85.67
86083;BME280;76693;50.220;14.298;2024-03-06T03:50:21;99570.09;;;3.77;85.01
86083;BME280;76693;50.220;14.298;2024-03-06T03:52:46;99570.97;;;3.78;84.74
86083;BME280;76693;50.220;14.298;2024-03-06T03:55:11;99570.78;;;3.48;85.31
86083;BME280;76693;50.220;14.298;2024-03-06T03:57:37;99578.00;;;3.29;86.24
86083;BME280;76693;50.220;14.298;2024-03-06T04:00:02;99585.88;;;3.32;85.94
86083;BME280;76693;50.220;14.298;2024-03-06T04:02:27;99586.47;;;3.28;86.58
86083;BME280;76693;50.220;14.298;2024-03-06T04:04:53;99588.41;;;3.18;87.28
86083;BME280;76693;50.220;14.298;2024-03-06T04:07:18;99586.28;;;3.24;86.61
86083;BME280;76693;50.220;14.298;2024-03-06T04:09:44;99586.47;;;3.41;86.04
86083;BME280;76693;50.220;14.298;2024-03-06T04:12:09;99582.66;;;3.61;85.85
86083;BME280;76693;50.220;14.298;2024-03-06T04:14:34;99585.41;;;3.64;85.72
86083;BME280;76693;50.220;14.298;2024-03-06T04:16:59;99595.50;;;3.62;86.33
86083;BME280;76693;50.220;14.298;2024-03-06T04:19:25;99591.38;;;3.78;85.81
86083;BME280;76693;50.220;14.298;2024-03-06T04:21:50;99591.97;;;3.87;85.61
86083;BME280;76693;50.220;14.298;2024-03-06T04:24:15;99587.66;;;3.86;85.95
86083;BME280;76693;50.220;14.298;2024-03-06T04:26:40;99596.69;;;3.94;85.16
86083;BME280;76693;50.220;14.298;2024-03-06T04:29:06;99597.38;;;4.05;84.39
86083;BME280;76693;50.220;14.298;2024-03-06T04:31:31;99600.00;;;4.06;85.10
86083;BME280;76693;50.220;14.298;2024-03-06T04:33:56;99595.88;;;3.95;84.99
86083;BME280;76693;50.220;14.298;2024-03-06T04:36:21;99594.34;;;3.97;84.56
86083;BME280;76693;50.220;14.298;2024-03-06T04:38:47;99590.59;;;3.65;86.10
86083;BME280;76693;50.220;14.298;2024-03-06T04:41:12;99595.91;;;3.68;85.51
86083;BME280;76693;50.220;14.298;2024-03-06T04:43:37;99593.94;;;3.91;85.74
86083;BME280;76693;50.220;14.298;2024-03-06T04:46:03;99597.06;;;4.00;85.07
86083;BME280;76693;50.220;14.298;2024-03-06T04:48:29;99598.34;;;4.07;84.92
86083;BME280;76693;50.220;14.298;2024-03-06T04:50:54;99604.22;;;4.06;84.85
86083;BME280;76693;50.220;14.298;2024-03-06T04:53:19;99600.59;;;4.02;84.56
86083;BME280;76693;50.220;14.298;2024-03-06T04:55:45;99598.66;;;3.85;86.20
86083;BME280;76693;50.220;14.298;2024-03-06T04:58:10;99608.94;;;3.99;85.89
86083;BME280;76693;50.220;14.298;2024-03-06T05:00:35;99599.59;;;4.00;85.18
86083;BME280;76693;50.220;14.298;2024-03-06T05:03:01;99601.56;;;4.04;85.57
86083;BME280;76693;50.220;14.298;2024-03-06T05:05:26;99598.72;;;3.99;85.85
86083;BME280;76693;50.220;14.298;2024-03-06T05:07:51;99601.16;;;4.11;84.89
86083;BME280;76693;50.220;14.298;2024-03-06T05:10:17;99610.09;;;4.18;85.09
86083;BME280;76693;50.220;14.298;2024-03-06T05:12:42;99605.47;;;4.12;84.83
86083;BME280;76693;50.220;14.298;2024-03-06T05:15:08;99606.31;;;3.85;85.46
86083;BME280;76693;50.220;14.298;2024-03-06T05:17:33;99612.00;;;3.81;85.74
86083;BME280;76693;50.220;14.298;2024-03-06T05:19:58;99613.38;;;3.89;85.24
86083;BME280;76693;50.220;14.298;2024-03-06T05:22:24;99622.78;;;4.03;85.91
86083;BME280;76693;50.220;14.298;2024-03-06T05:24:49;99626.91;;;4.14;85.24
86083;BME280;76693;50.220;14.298;2024-03-06T05:27:14;99633.22;;;3.80;86.03
86083;BME280;76693;50.220;14.298;2024-03-06T05:29:42;99631.41;;;3.65;86.51
86083;BME280;76693;50.220;14.298;2024-03-06T05:32:07;99630.94;;;3.97;86.19
86083;BME280;76693;50.220;14.298;2024-03-06T05:34:33;99633.06;;;4.31;85.49
86083;BME280;76693;50.220;14.298;2024-03-06T05:36:59;99636.78;;;4.36;85.55
86083;BME280;76693;50.220;14.298;2024-03-06T05:39:24;99634.59;;;4.29;85.46
86083;BME280;76693;50.220;14.298;2024-03-06T05:41:50;99642.56;;;4.34;85.24
86083;BME280;76693;50.220;14.298;2024-03-06T05:44:15;99639.53;;;4.39;84.96
86083;BME280;76693;50.220;14.298;2024-03-06T05:46:40;99653.53;;;4.46;85.21
86083;BME280;76693;50.220;14.298;2024-03-06T05:49:06;99648.47;;;4.19;84.30
86083;BME280;76693;50.220;14.298;2024-03-06T05:51:31;99655.75;;;3.73;85.84
86083;BME280;76693;50.220;14.298;2024-03-06T05:53:57;99642.50;;;4.19;85.87
86083;BME280;76693;50.220;14.298;2024-03-06T05:56:23;99644.50;;;4.38;84.96
86083;BME280;76693;50.220;14.298;2024-03-06T05:58:48;99656.97;;;4.46;84.19
86083;BME280;76693;50.220;14.298;2024-03-06T06:01:17;99661.03;;;4.30;84.33
86083;BME280;76693;50.220;14.298;2024-03-06T06:03:46;99660.31;;;4.45;85.41
86083;BME280;76693;50.220;14.298;2024-03-06T06:06:14;99659.81;;;4.64;84.56
86083;BME280;76693;50.220;14.298;2024-03-06T06:08:39;99666.44;;;4.21;84.73
86083;BME280;76693;50.220;14.298;2024-03-06T06:11:05;99662.72;;;4.16;86.79
86083;BME280;76693;50.220;14.298;2024-03-06T06:13:30;99666.91;;;4.55;84.53
86083;BME280;76693;50.220;14.298;2024-03-06T06:15:57;99673.22;;;4.75;83.98
86083;BME280;76693;50.220;14.298;2024-03-06T06:18:22;99685.09;;;4.74;82.94
86083;BME280;76693;50.220;14.298;2024-03-06T06:20:48;99687.13;;;4.52;84.13
86083;BME280;76693;50.220;14.298;2024-03-06T06:23:13;99687.31;;;4.68;84.58
86083;BME280;76693;50.220;14.298;2024-03-06T06:25:38;99694.28;;;4.99;83.27
86083;BME280;76693;50.220;14.298;2024-03-06T06:28:03;99691.97;;;4.89;82.93
86083;BME280;76693;50.220;14.298;2024-03-06T06:30:29;99682.75;;;4.78;83.77
86083;BME280;76693;50.220;14.298;2024-03-06T06:32:54;99686.97;;;5.05;83.01
86083;BME280;76693;50.220;14.298;2024-03-06T06:35:19;99690.63;;;5.23;82.90
86083;BME280;76693;50.220;14.298;2024-03-06T06:37:45;99685.59;;;5.10;82.79
86083;BME280;76693;50.220;14.298;2024-03-06T06:40:11;99690.72;;;4.97;83.26
86083;BME280;76693;50.220;14.298;2024-03-06T06:42:38;99699.19;;;4.96;84.29
86083;BME280;76693;50.220;14.298;2024-03-06T06:45:03;99701.59;;;5.36;82.69
86083;BME280;76693;50.220;14.298;2024-03-06T06:47:28;99704.81;;;5.61;83.07
86083;BME280;76693;50.220;14.298;2024-03-06T06:49:54;99710.78;;;5.76;82.03
86083;BME280;76693;50.220;14.298;2024-03-06T06:52:19;99720.53;;;5.97;81.31
86083;BME280;76693;50.220;14.298;2024-03-06T06:54:44;99717.53;;;6.04;81.43
86083;BME280;76693;50.220;14.298;2024-03-06T06:57:09;99717.88;;;6.10;81.08
86083;BME280;76693;50.220;14.298;2024-03-06T06:59:35;99720.06;;;6.19;81.96
86083;BME280;76693;50.220;14.298;2024-03-06T07:02:00;99714.13;;;6.35;81.53
86083;BME280;76693;50.220;14.298;2024-03-06T07:04:26;99720.44;;;6.56;80.59
86083;BME280;76693;50.220;14.298;2024-03-06T07:06:51;99713.66;;;6.73;79.69
86083;BME280;76693;50.220;14.298;2024-03-06T07:09:16;99714.50;;;6.88;79.89
86083;BME280;76693;50.220;14.298;2024-03-06T07:11:42;99721.44;;;6.74;80.52
86083;BME280;76693;50.220;14.298;2024-03-06T07:14:09;99718.88;;;6.91;79.38
86083;BME280;76693;50.220;14.298;2024-03-06T07:16:34;99731.44;;;6.39;79.04
86083;BME280;76693;50.220;14.298;2024-03-06T07:19:06;99722.53;;;6.32;81.21
86083;BME280;76693;50.220;14.298;2024-03-06T07:21:31;99732.00;;;6.18;81.61
86083;BME280;76693;50.220;14.298;2024-03-06T07:23:56;99735.53;;;6.20;80.27
86083;BME280;76693;50.220;14.298;2024-03-06T07:26:21;99730.97;;;6.46;80.57
86083;BME280;76693;50.220;14.298;2024-03-06T07:28:46;99729.50;;;7.13;78.87
86083;BME280;76693;50.220;14.298;2024-03-06T07:31:12;99725.97;;;7.28;79.10
86083;BME280;76693;50.220;14.298;2024-03-06T07:33:37;99732.38;;;7.19;77.71
86083;BME280;76693;50.220;14.298;2024-03-06T07:36:03;99732.72;;;7.25;77.99
86083;BME280;76693;50.220;14.298;2024-03-06T07:38:29;99735.97;;;7.07;77.81
86083;BME280;76693;50.220;14.298;2024-03-06T07:40:54;99745.78;;;6.66;78.01
86083;BME280;76693;50.220;14.298;2024-03-06T07:43:19;99737.84;;;7.42;76.54
86083;BME280;76693;50.220;14.298;2024-03-06T07:45:44;99736.22;;;7.44;75.65
86083;BME280;76693;50.220;14.298;2024-03-06T07:48:09;99743.69;;;7.90;75.72
86083;BME280;76693;50.220;14.298;2024-03-06T07:50:35;99747.75;;;8.03;74.85
86083;BME280;76693;50.220;14.298;2024-03-06T07:53:00;99752.53;;;8.13;73.18
86083;BME280;76693;50.220;14.298;2024-03-06T07:55:25;99748.53;;;7.84;74.38
86083;BME280;76693;50.220;14.298;2024-03-06T07:57:50;99746.94;;;7.69;75.03
86083;BME280;76693;50.220;14.298;2024-03-06T08:00:16;99750.78;;;7.78;73.86
86083;BME280;76693;50.220;14.298;2024-03-06T08:02:44;99753.44;;;8.13;72.95
86083;BME280;76693;50.220;14.298;2024-03-06T08:05:13;99757.59;;;8.29;73.11
86083;BME280;76693;50.220;14.298;2024-03-06T08:07:39;99765.69;;;8.19;72.35
86083;BME280;76693;50.220;14.298;2024-03-06T08:10:08;99762.44;;;8.05;74.36
86083;BME280;76693;50.220;14.298;2024-03-06T08:12:33;99762.44;;;8.05;72.59
86083;BME280;76693;50.220;14.298;2024-03-06T08:14:59;99761.56;;;8.57;73.18
86083;BME280;76693;50.220;14.298;2024-03-06T08:17:26;99762.88;;;9.04;70.68
86083;BME280;76693;50.220;14.298;2024-03-06T08:19:51;99761.03;;;9.01;70.49
86083;BME280;76693;50.220;14.298;2024-03-06T08:22:17;99765.66;;;9.08;69.98
86083;BME280;76693;50.220;14.298;2024-03-06T08:24:42;99761.00;;;9.38;69.40
86083;BME280;76693;50.220;14.298;2024-03-06T08:27:07;99762.97;;;9.63;68.73
86083;BME280;76693;50.220;14.298;2024-03-06T08:29:32;99765.53;;;9.83;67.70
86083;BME280;76693;50.220;14.298;2024-03-06T08:31:57;99762.09;;;9.63;67.88
86083;BME280;76693;50.220;14.298;2024-03-06T08:34:24;99764.59;;;9.61;67.97
86083;BME280;76693;50.220;14.298;2024-03-06T08:36:50;99768.88;;;10.01;68.44
86083;BME280;76693;50.220;14.298;2024-03-06T08:39:15;99772.88;;;10.15;67.69
86083;BME280;76693;50.220;14.298;2024-03-06T08:41:41;99763.22;;;9.31;67.96
86083;BME280;76693;50.220;14.298;2024-03-06T08:44:07;99769.56;;;8.81;69.27
86083;BME280;76693;50.220;14.298;2024-03-06T08:46:32;99772.34;;;9.05;69.14
86083;BME280;76693;50.220;14.298;2024-03-06T08:48:58;99764.97;;;8.75;68.62
86083;BME280;76693;50.220;14.298;2024-03-06T08:51:23;99769.88;;;9.25;70.38
86083;BME280;76693;50.220;14.298;2024-03-06T08:53:48;99773.59;;;9.52;70.14
86083;BME280;76693;50.220;14.298;2024-03-06T08:56:14;99769.66;;;9.60;66.22
86083;BME280;76693;50.220;14.298;2024-03-06T08:58:40;99770.19;;;9.91;66.11
86083;BME280;76693;50.220;14.298;2024-03-06T09:01:05;99771.63;;;10.46;64.66
86083;BME280;76693;50.220;14.298;2024-03-06T09:03:30;99763.97;;;10.49;64.18
86083;BME280;76693;50.220;14.298;2024-03-06T09:05:56;99762.66;;;10.17;64.18
86083;BME280;76693;50.220;14.298;2024-03-06T09:08:21;99767.41;;;9.09;67.88
86083;BME280;76693;50.220;14.298;2024-03-06T09:10:47;99768.13;;;9.24;66.17
86083;BME280;76693;50.220;14.298;2024-03-06T09:13:12;99773.25;;;9.63;65.11
86083;BME280;76693;50.220;14.298;2024-03-06T09:15:37;99769.03;;;10.46;64.27
86083;BME280;76693;50.220;14.298;2024-03-06T09:18:02;99768.91;;;10.43;65.24
86083;BME280;76693;50.220;14.298;2024-03-06T09:20:28;99779.09;;;9.79;64.40
86083;BME280;76693;50.220;14.298;2024-03-06T09:22:55;99775.97;;;9.47;64.76
86083;BME280;76693;50.220;14.298;2024-03-06T09:25:21;99777.00;;;9.50;65.63
86083;BME280;76693;50.220;14.298;2024-03-06T09:27:47;99780.06;;;9.61;64.97
86083;BME280;76693;50.220;14.298;2024-03-06T09:30:12;99780.06;;;9.61;66.94
86083;BME280;76693;50.220;14.298;2024-03-06T09:32:38;99776.66;;;9.62;65.76
86083;BME280;76693;50.220;14.298;2024-03-06T09:35:04;99777.47;;;10.02;65.56
86083;BME280;76693;50.220;14.298;2024-03-06T09:37:29;99778.31;;;9.81;65.90
86083;BME280;76693;50.220;14.298;2024-03-06T09:39:55;99771.78;;;10.94;63.94
86083;BME280;76693;50.220;14.298;2024-03-06T09:42:21;99768.28;;;11.16;62.19
86083;BME280;76693;50.220;14.298;2024-03-06T09:44:47;99773.38;;;11.13;62.88
86083;BME280;76693;50.220;14.298;2024-03-06T09:47:13;99779.09;;;11.06;62.87
86083;BME280;76693;50.220;14.298;2024-03-06T09:49:41;99781.41;;;11.68;60.86
86083;BME280;76693;50.220;14.298;2024-03-06T09:52:07;99781.16;;;10.28;61.54
86083;BME280;76693;50.220;14.298;2024-03-06T09:54:33;99792.25;;;9.65;63.44
86083;BME280;76693;50.220;14.298;2024-03-06T09:56:58;99787.25;;;9.89;65.65
86083;BME280;76693;50.220;14.298;2024-03-06T09:59:24;99787.06;;;9.27;65.92
86083;BME280;76693;50.220;14.298;2024-03-06T10:01:50;99791.44;;;9.28;65.46
86083;BME280;76693;50.220;14.298;2024-03-06T10:04:22;99786.56;;;9.53;65.66
86083;BME280;76693;50.220;14.298;2024-03-06T10:06:48;99783.16;;;9.15;65.46
86083;BME280;76693;50.220;14.298;2024-03-06T10:09:16;99790.75;;;9.32;65.88
86083;BME280;76693;50.220;14.298;2024-03-06T10:11:41;99787.91;;;10.05;63.82
86083;BME280;76693;50.220;14.298;2024-03-06T10:14:07;99791.25;;;9.62;64.16
86083;BME280;76693;50.220;14.298;2024-03-06T10:16:32;99788.72;;;9.83;63.60
86083;BME280;76693;50.220;14.298;2024-03-06T10:19:09;99788.84;;;10.47;62.72
86083;BME280;76693;50.220;14.298;2024-03-06T10:21:40;99789.22;;;10.35;62.12
86083;BME280;76693;50.220;14.298;2024-03-06T10:24:05;99779.78;;;10.36;62.59
86083;BME280;76693;50.220;14.298;2024-03-06T10:26:31;99789.03;;;9.90;63.87
86083;BME280;76693;50.220;14.298;2024-03-06T10:28:56;99791.31;;;9.44;64.33
86083;BME280;76693;50.220;14.298;2024-03-06T10:31:28;99786.69;;;9.56;65.27
86083;BME280;76693;50.220;14.298;2024-03-06T10:33:53;99786.44;;;9.69;65.02
86083;BME280;76693;50.220;14.298;2024-03-06T10:36:18;99787.50;;;9.55;65.17
86083;BME280;76693;50.220;14.298;2024-03-06T10:38:44;99788.22;;;9.91;62.56
86083;BME280;76693;50.220;14.298;2024-03-06T10:41:10;99791.50;;;10.08;61.06
86083;BME280;76693;50.220;14.298;2024-03-06T10:43:38;99790.91;;;10.35;61.27
86083;BME280;76693;50.220;14.298;2024-03-06T10:46:06;99788.66;;;10.86;61.42
86083;BME280;76693;50.220;14.298;2024-03-06T10:48:31;99786.41;;;10.72;58.43
86083;BME280;76693;50.220;14.298;2024-03-06T10:50:59;99775.91;;;10.05;60.47
86083;BME280;76693;50.220;14.298;2024-03-06T10:53:25;99782.28;;;10.76;57.55
86083;BME280;76693;50.220;14.298;2024-03-06T10:55:51;99777.41;;;11.06;56.94
86083;BME280;76693;50.220;14.298;2024-03-06T10:58:16;99772.03;;;11.00;55.84
86083;BME280;76693;50.220;14.298;2024-03-06T11:00:47;99776.88;;;11.15;55.20
86083;BME280;76693;50.220;14.298;2024-03-06T11:03:12;99776.56;;;11.30;56.48
86083;BME280;76693;50.220;14.298;2024-03-06T11:05:38;99784.66;;;10.71;56.02
86083;BME280;76693;50.220;14.298;2024-03-06T11:08:08;99780.94;;;11.08;55.93
86083;BME280;76693;50.220;14.298;2024-03-06T11:10:34;99766.56;;;11.39;54.33
86083;BME280;76693;50.220;14.298;2024-03-06T11:13:03;99772.28;;;11.54;56.10
86083;BME280;76693;50.220;14.298;2024-03-06T11:15:29;99770.72;;;12.07;55.52
86083;BME280;76693;50.220;14.298;2024-03-06T11:17:55;99767.38;;;11.84;56.32
86083;BME280;76693;50.220;14.298;2024-03-06T11:20:20;99776.00;;;10.92;56.82
86083;BME280;76693;50.220;14.298;2024-03-06T11:28:34;99764.94;;;10.51;56.57
86083;BME280;76693;50.220;14.298;2024-03-06T11:31:03;99766.88;;;10.57;57.17
86083;BME280;76693;50.220;14.298;2024-03-06T11:33:38;99762.28;;;10.93;56.59
86083;BME280;76693;50.220;14.298;2024-03-06T11:36:23;99764.44;;;11.51;54.60
86083;BME280;76693;50.220;14.298;2024-03-06T11:39:03;99761.31;;;10.68;56.69
86083;BME280;76693;50.220;14.298;2024-03-06T11:41:29;99760.84;;;10.79;56.34
86083;BME280;76693;50.220;14.298;2024-03-06T11:43:55;99761.47;;;10.51;57.00
86083;BME280;76693;50.220;14.298;2024-03-06T11:49:05;99758.63;;;10.03;58.32
86083;BME280;76693;50.220;14.298;2024-03-06T11:51:39;99756.50;;;10.13;59.37
86083;BME280;76693;50.220;14.298;2024-03-06T11:54:05;99760.13;;;10.18;57.20
86083;BME280;76693;50.220;14.298;2024-03-06T11:56:30;99755.59;;;10.76;55.80
86083;BME280;76693;50.220;14.298;2024-03-06T11:58:55;99751.91;;;11.86;53.63
86083;BME280;76693;50.220;14.298;2024-03-06T12:01:20;99750.34;;;11.67;52.44
86083;BME280;76693;50.220;14.298;2024-03-06T12:03:45;99740.53;;;12.33;50.95
86083;BME280;76693;50.220;14.298;2024-03-06T12:06:11;99745.44;;;13.37;50.64
86083;BME280;76693;50.220;14.298;2024-03-06T12:08:38;99745.00;;;11.85;51.07
86083;BME280;76693;50.220;14.298;2024-03-06T12:11:04;99740.38;;;12.02;51.12
86083;BME280;76693;50.220;14.298;2024-03-06T12:13:30;99738.28;;;11.42;52.90
86083;BME280;76693;50.220;14.298;2024-03-06T12:15:55;99743.00;;;11.07;53.26
86083;BME280;76693;50.220;14.298;2024-03-06T12:18:21;99736.94;;;11.05;54.35
86083;BME280;76693;50.220;14.298;2024-03-06T12:20:46;99738.19;;;10.49;55.13
86083;BME280;76693;50.220;14.298;2024-03-06T12:23:21;99731.50;;;11.21;55.27
86083;BME280;76693;50.220;14.298;2024-03-06T12:25:47;99730.03;;;11.04;52.64
86083;BME280;76693;50.220;14.298;2024-03-06T12:28:12;99730.78;;;11.73;51.02
86083;BME280;76693;50.220;14.298;2024-03-06T12:30:41;99724.56;;;11.68;49.55
86083;BME280;76693;50.220;14.298;2024-03-06T12:33:07;99715.97;;;13.32;49.90
86083;BME280;76693;50.220;14.298;2024-03-06T12:35:33;99713.53;;;13.38;47.90
86083;BME280;76693;50.220;14.298;2024-03-06T12:37:58;99720.84;;;12.37;48.74
86083;BME280;76693;50.220;14.298;2024-03-06T12:40:24;99727.56;;;11.31;50.82
86083;BME280;76693;50.220;14.298;2024-03-06T12:42:49;99714.53;;;12.29;50.54
86083;BME280;76693;50.220;14.298;2024-03-06T12:45:15;99706.09;;;12.90;48.83
86083;BME280;76693;50.220;14.298;2024-03-06T12:47:41;99706.72;;;13.11;47.20
86083;BME280;76693;50.220;14.298;2024-03-06T12:50:07;99712.28;;;12.12;49.02
86083;BME280;76693;50.220;14.298;2024-03-06T12:52:33;99711.03;;;11.76;49.72
86083;BME280;76693;50.220;14.298;2024-03-06T12:54:58;99708.31;;;11.47;50.83
86083;BME280;76693;50.220;14.298;2024-03-06T12:57:24;99712.06;;;11.31;51.41
86083;BME280;76693;50.220;14.298;2024-03-06T12:59:49;99717.75;;;10.98;49.98